CheckWX is a tool to help pilots better visualize weather data.  It is not intended as a substitute for an official pre-flight weather briefing.

11:22:45 UTC

KMKS METAR
Berkeley County Airport
Moncks Corner, South Carolina, USA
Current

28 mins ago

KMKS 241055Z AUTO 00000KT 7SM CLR 22/22 A2998 RMK AO2
Observed
Jun-24 @ 10:55 UTC
Visibility
7 SM
Flight Rules
VFR
Cloud Levels
  • Clear skies
Temperature
22°C / 72°F
Dewpoint
22°C / 72°F
Humidity
100%
Altimeter
29.98" Hg
Pressure
1015.22 hPa
Previous

1 hour ago

KMKS 241015Z AUTO 00000KT 5SM BR CLR 21/21 A2997 RMK AO2
Observed
Jun-24 @ 10:15 UTC
Visibility
5 SM
Flight Rules
MVFR
Conditions
Mist
Cloud Levels
  • Clear skies
Temperature
21°C / 70°F
Dewpoint
21°C / 70°F
Humidity
100%
Altimeter
29.97" Hg
Pressure
1014.92 hPa
Previous

1 hour ago

KMKS 240955Z AUTO 00000KT 7SM CLR 21/21 A2997 RMK AO2
Observed
Jun-24 @ 09:55 UTC
Visibility
7 SM
Flight Rules
VFR
Cloud Levels
  • Clear skies
Temperature
21°C / 70°F
Dewpoint
21°C / 70°F
Humidity
100%
Altimeter
29.97" Hg
Pressure
1014.92 hPa